Waterville, New York
Current Conditions -  °F | °C
As of 2:53 PM on Monday 24 Nov 2014 (Local Time) from KRME Reporting Station
Overcast Overcast  
Wind Chill: 68°   Ceiling: 10000
Heat Index: 68°   Visibility: 10mi
Dew Point: 51°   Wind: 15mph
Humidity: 55%   Direction: 180°S
Pressure: 29.37"   Gusts: NA
Location:  42.93°N, 75.38°W
Report Text: KRME 241953Z 18013KT 10SM OVC100 20/11 A2937 RMK AO2 SLP944 T02000106
Loading
Personal Weather Stations






























Interactive Weather Map New forecast layout! Learn more

10-Day Weather Forecast

Advertisements
Track Severe Weather on mobile